Latest Weather Observations for Middle Point

IDD60801

Issued at 7:31 am CST Wednesday 27 May 2020 (issued every 10 minutes, with the page automatically refreshed every 10 minutes)

About weather observations | Map of weather stations | Latest weather observations for NT | Other Formats
Station Details ID: 014041 Name: MIDDLE POINT Lat: -12.61 Lon: 131.30 Height: 14.1 m
Data from the previous 72 hours. | See also: Recent months at Middle Point
Date/Time
CST
Temp
°C
App
Temp
°C
Dew
Point
°C
Rel
Hum
%
Delta-T
°C
Wind Press
QNH
hPa
Press
MSL
hPa
Rain since
9am
mm
Dir  Spd
km/h
Gust
km/h
Spd
kts
Gust
kts
27/07:00am 17.4 19.6 16.4 94 0.6 CALM 0 0 0 0 1015.2 1015.1 0.0
27/06:30am 18.2 20.1 17.7 97 0.3 E 4 4 2 2 1014.8 1014.7 0.0
27/06:00am 18.4 19.8 17.8 96 0.4 E 7 7 4 4 1014.6 1014.5 0.0
27/05:30am 18.8 19.9 18.0 95 0.5 E 9 11 5 6 1014.3 1014.2 0.0
27/05:00am 18.9 20.2 17.6 92 0.8 E 7 9 4 5 1014.1 1014.0 0.0
27/04:30am 18.7 19.8 17.2 91 0.9 ESE 7 9 4 5 1014.3 1014.2 0.0
27/04:00am 18.8 20.3 17.5 92 0.8 SE 6 7 3 4 1014.4 1014.3 0.0
27/03:30am 19.0 20.8 17.5 91 0.9 SE 4 4 2 2 1014.4 1014.3 0.0
27/03:00am 19.0 21.7 17.7 92 0.8 CALM 0 2 0 1 1014.5 1014.4 0.0
27/02:30am 19.1 21.5 18.8 98 0.2 ESE 4 6 2 3 1014.5 1014.4 0.0
27/02:00am 17.8 19.1 17.0 95 0.5 N 6 6 3 3 1014.6 1014.5 0.0
27/01:30am 17.9 19.5 16.8 93 0.7 N 4 4 2 2 1014.7 1014.6 0.0
27/01:00am 17.9 20.1 16.6 92 0.8 CALM 0 0 0 0 1014.6 1014.5 0.0
27/12:30am 18.5 20.9 17.0 91 0.9 CALM 0 0 0 0 1014.5 1014.4 0.0
27/12:00am 18.8 21.2 17.1 90 1.0 CALM 0 0 0 0 1014.7 1014.6 0.0
 
Date/Time
CST
Temp
°C
App
Temp
°C
Dew
Point
°C
Rel
Hum
%
Delta-T
°C
Wind Press
QNH
hPa
Press
MSL
hPa
Rain since
9am
mm
Dir  Spd
km/h
Gust
km/h
Spd
kts
Gust
kts
26/11:30pm 18.9 21.3 17.0 89 1.1 CALM 0 2 0 1 1014.7 1014.6 0.0
26/11:00pm 18.8 20.5 17.1 90 1.0 N 4 4 2 2 1014.8 1014.7 0.0
26/10:30pm 18.7 20.7 17.0 90 1.0 N 2 4 1 2 1014.9 1014.8 0.0
26/10:00pm 18.8 20.7 16.8 88 1.2 N 2 4 1 2 1015.1 1015.0 0.0
26/09:30pm 19.5 21.5 16.9 85 1.6 N 2 4 1 2 1015.0 1014.9 0.0
26/09:00pm 20.0 21.7 17.2 84 1.7 N 4 6 2 3 1014.9 1014.8 0.0
26/08:30pm 20.4 21.8 16.4 78 2.4 N 4 4 2 2 1014.9 1014.8 0.0
26/08:00pm 21.5 22.8 16.2 72 3.2 N 4 6 2 3 1014.5 1014.4 0.0
26/07:30pm 22.0 22.8 16.3 70 3.4 N 7 7 4 4 1014.1 1014.0 0.0
26/07:00pm 23.3 24.8 16.6 66 4.1 N 4 6 2 3 1013.9 1013.8 0.0
26/06:30pm 24.6 25.0 16.3 60 5.1 N 9 9 5 5 1013.5 1013.4 0.0
26/06:00pm 26.4 26.5 16.6 55 6.1 N 11 13 6 7 1013.2 1013.1 0.0
26/05:30pm 27.6 27.2 17.2 53 6.5 N 15 19 8 10 1013.0 1012.9 0.0
26/05:00pm 28.4 27.7 17.3 51 7.0 N 17 24 9 13 1012.6 1012.5 0.0
26/04:30pm 29.1 28.4 17.3 49 7.5 N 17 26 9 14 1012.4 1012.3 0.0
26/04:00pm 29.4 28.5 16.9 47 7.9 N 17 26 9 14 1012.4 1012.3 0.0
26/03:30pm 30.4 31.1 16.0 41 9.0 NE 7 13 4 7 1012.4 1012.3 0.0
26/03:00pm 30.2 30.2 16.2 42 8.7 NE 11 19 6 10 1012.6 1012.5 0.0
26/02:30pm 30.1 30.2 15.4 41 9.1 ENE 9 17 5 9 1012.7 1012.6 0.0
26/02:00pm 29.7 29.8 16.5 45 8.3 NE 11 20 6 11 1013.0 1012.9 0.0
26/01:30pm 30.1 30.1 17.2 46 8.2 NE 13 22 7 12 1013.5 1013.4 0.0
26/01:00pm 29.7 29.8 16.5 45 8.3 NE 11 20 6 11 1014.2 1014.1 0.0
26/12:30pm 28.8 28.9 16.4 47 7.7 NE 11 19 6 10 1014.9 1014.8 0.0
26/12:00pm 28.3 28.1 16.6 49 7.3 NE 13 20 7 11 1015.3 1015.2 0.0
26/11:30am 27.3 27.3 16.3 51 6.8 NE 11 20 6 11 1015.8 1015.7 0.0
26/11:00am 26.6 26.4 15.6 50 6.7 ENE 11 20 6 11 1016.2 1016.1 0.0
26/10:30am 25.5 24.6 15.8 55 5.9 E 15 22 8 12 1016.5 1016.4 0.0
26/10:00am 24.7 23.7 15.6 57 5.5 E 15 22 8 12 1016.8 1016.7 0.0
26/09:30am 22.4 21.8 15.7 66 4.0 E 13 17 7 9 1016.9 1016.8 0.0
26/09:00am 20.6 20.4 15.8 74 2.9 E 11 19 6 10 1016.9 1016.8 0.0
26/08:30am 18.9 19.4 15.6 81 1.9 ESE 7 9 4 5 1016.7 1016.6 0.0
26/08:00am 17.1 18.7 16.0 93 0.6 S 2 2 1 1 1016.4 1016.3 0.0
26/07:30am 14.8 15.1 14.5 98 0.2 S 6 6 3 3 1016.1 1016.0 0.0
26/07:00am 13.7 14.6 12.8 94 0.5 CALM 0 0 0 0 1015.8 1015.7 0.0
26/06:30am 13.7 14.8 13.4 98 0.2 CALM 0 2 0 1 1015.3 1015.2 0.0
26/06:00am 13.6 13.8 13.0 96 0.3 SSW 4 4 2 2 1015.3 1015.2 0.0
26/05:30am 13.9 14.2 13.4 97 0.3 SSW 4 4 2 2 1015.2 1015.1 0.0
26/05:00am 13.9 14.2 13.3 96 0.3 S 4 6 2 3 1015.1 1015.0 0.0
26/04:30am 13.9 15.0 13.6 98 0.2 CALM 0 0 0 0 1014.9 1014.8 0.0
26/04:00am 13.8 14.9 13.5 98 0.2 CALM 0 0 0 0 1015.0 1014.9 0.0
26/03:30am 13.8 14.0 13.0 95 0.4 SSE 4 4 2 2 1015.2 1015.1 0.0
26/03:00am 14.5 14.8 13.5 94 0.6 SE 4 6 2 3 1015.4 1015.3 0.0
26/02:30am 14.6 15.1 14.0 96 0.3 NE 4 6 2 3 1015.5 1015.4 0.0
26/02:00am 14.1 15.0 12.8 92 0.7 CALM 0 0 0 0 1015.8 1015.7 0.0
26/01:30am 15.0 16.3 14.0 94 0.6 CALM 0 0 0 0 1015.7 1015.6 0.0
26/01:00am 14.6 15.4 13.6 94 0.6 N 2 2 1 1 1015.8 1015.7 0.0
26/12:30am 14.4 14.7 13.3 93 0.6 N 4 6 2 3 1015.8 1015.7 0.0
26/12:00am 14.2 15.0 12.6 90 0.9 CALM 0 4 0 2 1015.8 1015.7 0.0
 
Date/Time
CST
Temp
°C
App
Temp
°C
Dew
Point
°C
Rel
Hum
%
Delta-T
°C
Wind Press
QNH
hPa
Press
MSL
hPa
Rain since
9am
mm
Dir  Spd
km/h
Gust
km/h
Spd
kts
Gust
kts
25/11:30pm 15.1 16.2 13.5 90 0.9 CALM 0 0 0 0 1015.7 1015.6 0.0
25/11:00pm 15.4 16.2 13.6 89 1.0 N 2 4 1 2 1016.1 1016.0 0.0
25/10:30pm 15.6 16.7 13.4 87 1.2 CALM 0 0 0 0 1016.1 1016.0 0.0
25/10:00pm 16.2 17.4 13.7 85 1.4 CALM 0 0 0 0 1015.9 1015.8 0.0
25/09:30pm 15.7 16.6 12.8 83 1.6 CALM 0 2 0 1 1015.9 1015.8 0.0
25/09:00pm 16.8 18.0 13.9 83 1.6 CALM 0 6 0 3 1015.7 1015.6 0.0
25/08:30pm 17.4 18.4 13.3 77 2.3 CALM 0 2 0 1 1015.4 1015.3 0.0
25/08:00pm 18.8 19.1 13.4 71 3.1 N 4 6 2 3 1015.1 1015.0 0.0
25/07:30pm 20.4 20.2 13.6 65 3.9 N 7 9 4 5 1014.7 1014.6 0.0
25/07:00pm 21.7 21.0 13.3 59 4.8 NNE 9 11 5 6 1014.3 1014.2 0.0
25/06:30pm 23.5 21.9 12.8 51 6.1 NNE 13 17 7 9 1013.9 1013.8 0.0
25/06:00pm 25.5 23.3 12.0 43 7.7 NNE 15 22 8 12 1013.6 1013.5 0.0
25/05:30pm 27.4 24.7 11.8 38 9.0 N 17 24 9 13 1013.6 1013.5 0.0
25/05:00pm 28.6 25.6 10.8 33 10.1 N 17 24 9 13 1013.1 1013.0 0.0
25/04:30pm 30.0 27.6 7.2 24 12.3 NE 9 17 5 9 1013.0 1012.9 0.0
25/04:00pm 30.2 27.0 6.8 23 12.6 NE 13 17 7 9 1012.7 1012.6 0.0
25/03:30pm 30.1 27.4 7.3 24 12.3 NE 11 19 6 10 1012.8 1012.7 0.0
25/03:00pm 30.2 27.9 7.4 24 12.4 NNE 9 20 5 11 1012.9 1012.8 0.0
25/02:30pm 29.8 27.8 7.1 24 12.2 ESE 7 17 4 9 1013.2 1013.1 0.0
25/02:00pm 29.4 27.4 7.3 25 11.9 NE 7 15 4 8 1013.4 1013.3 0.0
25/01:30pm 29.0 26.7 7.6 26 11.6 E 9 15 5 8 1014.1 1014.0 0.0
25/01:00pm 28.2 26.2 6.9 26 11.3 SE 7 15 4 8 1014.5 1014.4 0.0
25/12:30pm 27.7 25.0 7.5 28 10.8 ESE 11 20 6 11 1014.6 1014.5 0.0
25/12:00pm 27.6 24.6 7.5 28 10.8 ESE 13 20 7 11 1015.0 1014.9 0.0
25/11:30am 26.7 22.6 7.7 30 10.2 ESE 19 28 10 15 1015.3 1015.2 0.0
25/11:00am 26.2 22.6 8.2 32 9.7 ESE 17 26 9 14 1015.6 1015.5 0.0
25/10:30am 25.2 20.7 8.7 35 8.9 ESE 22 30 12 16 1015.8 1015.7 0.0
25/10:00am 24.3 19.3 7.9 35 8.7 ESE 24 35 13 19 1016.0 1015.9 0.0
25/09:30am 23.1 19.0 8.8 40 7.6 ESE 20 30 11 16 1016.2 1016.1 0.0
25/09:00am 21.1 19.1 11.4 54 5.4 ESE 13 19 7 10 1016.5 1016.4 0.0
25/08:30am 18.8 16.7 11.1 61 4.2 ESE 13 17 7 9 1016.4 1016.3 0.0
25/08:00am 17.4 16.0 11.0 66 3.4 ESE 9 15 5 8 1016.5 1016.4 0.0
25/07:59am 17.4 16.1 11.2 67 3.4 ESE 9 15 5 8 1016.5 1016.4 0.0
25/07:30am 12.4 12.7 11.0 91 0.7 CALM 0 0 0 0 1016.6 1016.5 0.0
25/07:00am 13.1 13.2 10.3 83 1.5 CALM 0 0 0 0 1016.6 1016.5 0.0
25/06:30am 13.1 13.3 10.6 85 1.3 CALM 0 0 0 0 1016.7 1016.6 0.0
25/06:00am 13.7 13.5 10.3 80 1.8 SSE 2 4 1 2 1016.7 1016.6 0.0
25/05:30am 15.6 14.2 9.7 68 3.1 SE 7 9 4 5 1016.8 1016.7 0.0
25/05:00am 15.7 14.4 10.0 69 3.0 SE 7 9 4 5 1016.3 1016.2 0.0
25/04:30am 15.1 14.0 10.7 75 2.3 S 7 7 4 4 1016.4 1016.3 0.0
25/04:00am 15.9 14.9 11.1 73 2.6 SSE 7 7 4 4 1016.5 1016.4 0.0
25/03:30am 16.1 15.3 11.7 75 2.4 SSE 7 9 4 5 1016.5 1016.4 0.0
25/03:00am 16.3 15.6 11.9 75 2.4 S 7 9 4 5 1016.8 1016.7 0.0
25/02:30am 17.2 16.8 12.5 74 2.6 SSE 6 6 3 3 1017.1 1017.0 0.0
25/02:00am 17.7 17.2 12.6 72 2.8 S 7 9 4 5 1017.5 1017.4 0.0
25/01:30am 18.0 17.6 13.1 73 2.8 S 7 9 4 5 1017.3 1017.2 0.0
25/01:00am 17.3 17.1 13.0 76 2.4 S 6 7 3 4 1017.5 1017.4 0.0
25/12:30am 17.6 18.2 13.1 75 2.5 S 2 4 1 2 1017.3 1017.2 0.0
25/12:00am 18.6 18.7 12.8 69 3.2 S 4 4 2 2 1017.5 1017.4 0.0
 
Date/Time
CST
Temp
°C
App
Temp
°C
Dew
Point
°C
Rel
Hum
%
Delta-T
°C
Wind Press
QNH
hPa
Press
MSL
hPa
Rain since
9am
mm
Dir  Spd
km/h
Gust
km/h
Spd
kts
Gust
kts
24/11:30pm 18.9 18.8 13.3 70 3.2 SSW 6 6 3 3 1017.5 1017.4 0.0
24/11:00pm 19.4 19.7 13.3 68 3.5 SSW 4 6 2 3 1017.2 1017.1 0.0
24/10:30pm 20.2 19.7 12.2 60 4.5 S 6 9 3 5 1017.4 1017.3 0.0
24/10:00pm 20.3 20.1 13.0 63 4.1 E 6 7 3 4 1017.0 1016.9 0.0
24/09:30pm 20.0 21.2 15.0 73 2.9 ENE 2 2 1 1 1017.0 1016.9 0.0
24/09:00pm 19.8 20.3 14.0 69 3.3 ENE 4 4 2 2 1016.7 1016.6 0.0
24/08:30pm 18.9 19.1 13.1 69 3.3 ENE 4 4 2 2 1016.3 1016.2 0.0
24/08:00pm 18.3 19.1 12.7 70 3.1 CALM 0 0 0 0 1015.9 1015.8 0.0
24/07:30pm 18.1 18.7 11.9 67 3.4 CALM 0 0 0 0 1015.6 1015.5 0.0
24/07:00pm 19.9 20.2 10.9 56 4.9 CALM 0 0 0 0 1015.3 1015.2 0.0
24/06:30pm 22.9 21.5 7.4 37 8.1 ENE 4 4 2 2 1015.0 1014.9 0.0
24/06:00pm 24.8 22.9 6.5 31 9.5 ENE 6 7 3 4 1014.6 1014.5 0.0
24/05:30pm 26.1 23.3 5.1 26 10.7 E 9 13 5 7 1014.1 1014.0 0.0
24/05:00pm 26.9 24.0 4.6 24 11.3 E 9 17 5 9 1014.1 1014.0 0.0
24/04:30pm 27.0 23.2 4.1 23 11.5 E 13 19 7 10 1014.0 1013.9 0.0
24/04:00pm 27.1 22.5 3.6 22 11.7 E 17 24 9 13 1013.8 1013.7 0.0
24/03:30pm 27.2 22.6 3.7 22 11.7 E 17 22 9 12 1014.1 1014.0 0.0
24/03:00pm 27.3 22.2 3.1 21 12.0 ESE 19 26 10 14 1014.2 1014.1 0.0
24/02:30pm 26.6 21.9 3.2 22 11.5 ESE 17 24 9 13 1014.7 1014.6 0.0
24/02:00pm 26.8 21.6 2.7 21 11.8 E 19 26 10 14 1015.1 1015.0 0.0
24/01:30pm 26.0 20.5 2.0 21 11.5 E 20 30 11 16 1015.4 1015.3 0.0
24/01:00pm 25.6 20.4 2.3 22 11.2 ESE 19 30 10 16 1015.8 1015.7 0.0
24/12:30pm 25.4 20.2 2.2 22 11.1 ESE 19 26 10 14 1016.1 1016.0 0.0
24/12:00pm 24.6 19.2 2.7 24 10.5 SE 20 28 11 15 1016.5 1016.4 0.0
24/11:30am 23.9 18.3 3.2 26 10.0 ESE 22 39 12 21 1017.3 1017.2 0.0
24/11:00am 23.1 17.9 3.6 28 9.5 ESE 20 28 11 15 1017.5 1017.4 0.0
24/10:30am 21.9 16.8 4.0 31 8.7 SE 20 28 11 15 1017.9 1017.8 0.0
24/10:00am 20.8 15.0 4.4 34 8.0 SE 24 32 13 17 1018.1 1018.0 0.0
24/09:30am 21.6 15.9 5.1 34 8.1 SE 24 32 13 17 1017.9 1017.8 0.0
24/09:00am 20.5 15.6 4.9 36 7.6 SE 20 30 11 16 1017.9 1017.8 0.0
24/08:30am 20.0 15.1 5.3 38 7.2 SSE 20 30 11 16 1017.7 1017.6 0.0
24/08:00am 19.0 14.8 5.8 42 6.5 SSE 17 22 9 12 1017.4 1017.3 0.0

Other formats

Comma delimited format used in spreadsheet applications
http://www.bom.gov.au/fwo/IDD60801/IDD60801.95121.axf

JavaScript Object Notation format (JSON) in row-major order
http://www.bom.gov.au/fwo/IDD60801/IDD60801.95121.json

Data quality

Most of these data are generated automatically and are frequently updated. Quality checks on data are not normally performed. It is possible for incorrect values to appear. Refer to information at About Latest Weather Observations and please check the disclaimer before using these data.